createdAt,value
2022-10-29T00:03:07.612Z,4.37
2022-10-29T00:08:08.983Z,4.43
2022-10-29T00:13:09.708Z,4.47
2022-10-29T00:18:10.558Z,4.20
2022-10-29T00:23:11.297Z,3.90
2022-10-29T00:28:12.058Z,4.22
2022-10-29T00:33:12.831Z,4.07
2022-10-29T00:38:13.614Z,3.53
2022-10-29T00:43:16.063Z,4.05
2022-10-29T00:48:17.006Z,4.32
2022-10-29T00:53:22.606Z,4.55
2022-10-29T00:58:23.653Z,4.70
2022-10-29T01:03:24.972Z,4.35
2022-10-29T01:08:25.795Z,4.50
2022-10-29T01:15:43.129Z,3.95
2022-10-29T01:21:13.717Z,5.18
2022-10-29T01:28:25.248Z,4.97
2022-10-29T01:34:36.833Z,5.22
2022-10-29T01:39:51.204Z,4.60
2022-10-29T01:45:26.275Z,4.93
2022-10-29T01:50:28.027Z,4.53
2022-10-29T01:55:34.343Z,4.70
2022-10-29T02:00:49.306Z,4.30
2022-10-29T02:06:10.529Z,3.83
2022-10-29T02:11:21.008Z,4.35
2022-10-29T02:16:23.807Z,4.75
2022-10-29T02:21:24.592Z,5.30
2022-10-29T02:26:25.397Z,4.40
2022-10-29T02:31:26.114Z,5.22
2022-10-29T02:36:26.878Z,4.20
2022-10-29T02:41:27.590Z,5.32
2022-10-29T02:46:29.529Z,5.62
2022-10-29T02:51:30.268Z,5.55
2022-10-29T02:56:31.142Z,5.05
2022-10-29T03:01:32.060Z,5.15
2022-10-29T03:06:33.122Z,4.68
2022-10-29T03:11:33.960Z,5.20
2022-10-29T03:16:34.716Z,5.20
2022-10-29T03:21:35.453Z,5.85
2022-10-29T03:26:36.290Z,4.70
2022-10-29T03:31:36.999Z,4.75
2022-10-29T03:36:37.772Z,4.68
2022-10-29T03:41:38.491Z,4.85
2022-10-29T03:46:39.234Z,5.25
2022-10-29T03:51:39.941Z,5.20
2022-10-29T03:56:40.797Z,5.25
2022-10-29T04:01:41.738Z,6.10
2022-10-29T04:06:42.835Z,6.70
2022-10-29T04:11:43.552Z,6.45
2022-10-29T04:16:44.288Z,7.05
2022-10-29T04:32:46.676Z,6.85
2022-10-29T04:37:47.370Z,6.87
2022-10-29T04:42:48.159Z,6.30
2022-10-29T04:47:59.167Z,6.35
2022-10-29T04:53:01.461Z,6.80
2022-10-29T04:58:02.430Z,6.23
2022-10-29T05:03:03.422Z,6.12
2022-10-29T05:08:05.842Z,6.53
2022-10-29T05:13:10.380Z,8.07
2022-10-29T05:18:11.107Z,6.10
2022-10-29T05:23:11.921Z,6.72
2022-10-29T05:28:20.601Z,6.15
2022-10-29T05:33:23.544Z,6.28
2022-10-29T05:38:24.461Z,6.10
2022-10-29T05:43:25.758Z,7.57
2022-10-29T05:48:26.474Z,5.93
2022-10-29T05:53:27.245Z,5.68
2022-10-29T05:58:28.061Z,6.78
2022-10-29T06:03:28.900Z,6.32
2022-10-29T06:08:29.657Z,6.60
2022-10-29T06:13:30.935Z,6.70
2022-10-29T06:18:31.647Z,5.72
2022-10-29T06:23:32.400Z,6.53
2022-10-29T06:28:35.125Z,6.50
2022-10-29T06:33:35.986Z,5.55
2022-10-29T06:38:37.003Z,6.45
2022-10-29T06:43:37.761Z,6.35
2022-10-29T06:48:38.561Z,6.93
2022-10-29T06:53:39.299Z,7.05
2022-10-29T06:58:40.149Z,6.75
2022-10-29T07:03:41.005Z,7.35
2022-10-29T07:08:41.755Z,7.10
2022-10-29T07:13:43.054Z,7.00
2022-10-29T07:18:43.995Z,7.28
2022-10-29T07:23:44.713Z,7.97
2022-10-29T07:28:45.648Z,7.93
2022-10-29T07:33:46.359Z,7.62
2022-10-29T07:38:47.103Z,6.87
2022-10-29T07:43:47.810Z,7.15
2022-10-29T07:48:48.597Z,7.30
2022-10-29T07:53:49.347Z,6.72
2022-10-29T07:58:50.225Z,6.85
2022-10-29T08:03:50.943Z,6.43
2022-10-29T08:08:51.698Z,7.07
2022-10-29T08:13:52.437Z,6.68
2022-10-29T08:18:53.348Z,6.07
2022-10-29T08:23:54.198Z,7.50
2022-10-29T08:28:55.163Z,6.65
2022-10-29T08:33:55.945Z,6.70
2022-10-29T08:38:56.691Z,5.95
2022-10-29T08:46:42.066Z,7.45
2022-10-29T08:52:29.225Z,7.30
2022-10-29T08:57:36.471Z,6.70
2022-10-29T09:02:39.539Z,6.00
2022-10-29T09:18:24.884Z,5.80
2022-10-29T09:25:11.053Z,5.60
2022-10-29T09:30:20.097Z,6.07
2022-10-29T09:35:26.217Z,6.68
2022-10-29T09:40:32.312Z,7.32
2022-10-29T09:45:47.176Z,7.72
2022-10-29T09:52:05.958Z,6.90
2022-10-29T09:57:16.831Z,6.40
2022-10-29T10:02:42.777Z,6.72
2022-10-29T10:08:12.611Z,6.68
2022-10-29T10:13:17.031Z,5.80
2022-10-29T10:18:38.583Z,5.60
2022-10-29T10:23:45.801Z,6.30
2022-10-29T10:29:21.446Z,7.00
2022-10-29T10:34:36.118Z,5.60
2022-10-29T10:39:55.324Z,5.32
2022-10-29T10:45:00.844Z,5.53
2022-10-29T10:52:54.964Z,5.07
2022-10-29T11:00:36.880Z,5.47
2022-10-29T11:05:56.384Z,5.22
2022-10-29T11:11:06.678Z,4.80
2022-10-29T11:16:30.474Z,5.70
2022-10-29T11:21:42.677Z,5.37
2022-10-29T11:26:50.757Z,5.47
2022-10-29T11:33:05.485Z,4.85
2022-10-29T11:38:20.023Z,4.43
2022-10-29T11:43:21.272Z,4.75
2022-10-29T11:48:44.884Z,4.82
2022-10-29T11:56:03.184Z,8.45
2022-10-29T12:01:42.821Z,7.93
2022-10-29T12:07:21.878Z,6.28
2022-10-29T12:14:49.373Z,6.05
2022-10-29T14:00:45.961Z,6.72
2022-10-29T14:06:00.986Z,7.93
2022-10-29T14:11:10.690Z,8.80
2022-10-29T14:16:14.757Z,7.60
2022-10-29T14:21:21.446Z,9.35
2022-10-29T14:26:28.262Z,8.85
2022-10-29T14:31:29.014Z,6.97
2022-10-29T14:36:43.466Z,8.38
2022-10-29T14:41:46.820Z,8.93
2022-10-29T14:47:33.462Z,8.82
2022-10-29T14:52:40.416Z,8.98
2022-10-29T14:57:45.358Z,8.10
2022-10-29T15:02:46.421Z,8.32
2022-10-29T15:07:48.484Z,8.18
2022-10-29T15:12:52.393Z,8.57
2022-10-29T15:18:05.027Z,8.63
2022-10-29T15:23:16.606Z,7.70
2022-10-29T15:41:30.320Z,6.78
2022-10-29T15:46:43.439Z,6.72
2022-10-29T15:56:45.216Z,6.93
2022-10-29T16:01:46.108Z,6.40
2022-10-29T16:06:47.444Z,6.87
2022-10-29T16:11:49.954Z,7.75
2022-10-29T16:16:50.778Z,9.15
2022-10-29T16:21:51.554Z,8.63
2022-10-29T16:26:52.270Z,10.85
2022-10-29T16:31:53.071Z,9.27
2022-10-29T16:36:53.795Z,9.18
2022-10-29T16:41:54.825Z,7.35
2022-10-29T16:46:55.641Z,7.68
2022-10-29T16:51:59.116Z,8.32
2022-10-29T16:56:59.846Z,8.75
2022-10-29T17:02:00.790Z,8.13
2022-10-29T17:07:01.592Z,10.82
2022-10-29T17:12:02.752Z,9.68
2022-10-29T17:17:03.597Z,8.27
2022-10-29T17:22:04.949Z,9.35
2022-10-29T17:27:05.686Z,9.43
2022-10-29T17:32:07.722Z,9.13
2022-10-29T17:37:08.834Z,10.63
2022-10-29T17:42:09.956Z,12.05
2022-10-29T17:47:10.931Z,10.80
2022-10-29T17:52:11.671Z,10.43
2022-10-29T17:57:12.416Z,9.60
2022-10-29T18:02:13.431Z,9.95
2022-10-29T18:07:14.287Z,10.00
2022-10-29T18:12:15.105Z,8.50
2022-10-29T18:17:16.111Z,8.75
